KHVR/HVR METAR and TAF weather

Enter ICAO airport designator
Station Type Date Time Source
KHVR METAR 2021/09/27 06:53 UTC NOAA

KHVR 270653Z AUTO 21007KT 10SM CLR 13/00 A2973 RMK AO2 SLP054 T01330000 403110078


Station Type Date Time Source
KHVR Decoded METAR 2021/09/27 06:53 UTC NOAA

HAVRE CITY-COUNTY AIRPORT, MT, United States (KHVR) 48-33N 109-46W 787M
Sep 27, 2021 - 02:53 AM EDT / 2021.09.27 0653 UTC
Wind: from the SSW (210 degrees) at 8 MPH (7 KT):0
Visibility: 10 mile(s):0
Sky conditions: clear
Temperature: 55.9 F (13.3 C)
Dew Point: 32.0 F (0.0 C)
Relative Humidity: 40%
Pressure (altimeter): 29.73 in. Hg (1006 hPa)
ob: KHVR 270653Z AUTO 21007KT 10SM CLR 13/00 A2973 RMK AO2 SLP054 T01330000 403110078
cycle: 7

Station Type Date Time Source
KHVR TAF 2021/09/27 06:39 UTC NOAA

TAF KHVR 270535Z 2706/2806 22009KT P6SM FEW250
FM271800 25016G24KT P6SM SCT250
FM280300 VRB06KT P6SM SCT250

Example: see airport list